Rufe, Oklahoma
Current Conditions -  °F | °C
As of 8:35 PM on Friday 24 Oct 2014 (Local Time) from K4O4 Reporting Station
Clear Clear  
Wind Chill: 63°   Ceiling: Unl
Heat Index: 63°   Visibility: 10mi
Dew Point: 55°   Wind: 3mph
Humidity: 77%   Direction: 130°SE
Pressure: 30.1"   Gusts: NA
Location:  34.12°N, 95.14°W
Report Text: K4O4 250135Z AUTO 13003KT 10SM CLR 17/13 A3010 RMK AO2
Loading
Personal Weather Stations






























Interactive Weather Map
Tropical Storm Tracking
New forecast layout! Learn more

10-Day Weather Forecast

Advertisements
Track Severe Weather on mobile